Time;durP1;ratioP1;P1;durP2;ratioP2;P2;SDS_P1;SDS_P2;PMS_P1;PMS_P2;Temp;Humidity;BMP_temperature;BMP_pressure;BME280_temperature;BME280_humidity;BME280_pressure;Samples;Min_cycle;Max_cycle;Signal;HPM_P1;HPM_P2
2022/03/30 00:34:48;;;;;;;10.88;2.90;;;;;;;6.83;54.01;100373.69;4845579;28;121913;-92
2022/03/30 00:46:21;;;;;;;11.77;3.05;;;;;;;6.68;53.38;100373.31;4861464;28;122438;-93
2022/03/30 00:55:36;;;;;;;10.80;3.05;;;;;;;6.38;53.51;100360.09;4842237;29;118244;-94
2022/03/30 00:58:06;;;;;;;14.82;3.00;;;;;;;6.92;54.18;100443.97;4826852;29;121033;-93
2022/03/30 01:05:24;;;;;;;7.22;3.00;;;;;;;6.83;54.03;100441.09;4839633;29;118363;-93
2022/03/30 01:11:12;;;;;;;9.90;2.88;;;;;;;6.17;54.70;100355.22;4994135;23;121757;-92
2022/03/30 01:13:40;;;;;;;10.85;3.00;;;;;;;6.55;54.46;100413.38;4867505;28;118478;-92
2022/03/30 01:16:06;;;;;;;10.90;3.55;;;;;;;6.44;54.81;100391.88;4870446;28;120948;-91
2022/03/30 01:18:40;;;;;;;10.27;3.17;;;;;;;6.25;54.66;100376.41;4851895;28;118410;-92
2022/03/30 01:21:10;;;;;;;10.07;3.03;;;;;;;6.01;54.94;100334.22;4833183;28;120671;-92
2022/03/30 01:23:39;;;;;;;9.05;3.03;;;;;;;6.05;54.69;100343.81;4832020;28;121941;-92
2022/03/30 01:26:06;;;;;;;9.25;3.17;;;;;;;5.96;54.53;100335.50;4867544;28;118404;-92
2022/03/30 01:28:33;;;;;;;16.33;3.05;;;;;;;6.01;54.62;100345.09;4851353;28;120941;-91
2022/03/30 01:35:32;;;;;;;9.50;2.83;;;;;;;6.40;54.12;100412.22;4883773;28;118353;-92
2022/03/30 01:50:38;;;;;;;9.32;2.90;;;;;;;5.63;55.18;100301.28;5068060;23;121234;-91
2022/03/30 01:56:25;;;;;;;11.73;3.03;;;;;;;6.20;55.25;100390.53;975054;23;121058;-91
2022/03/30 01:58:52;;;;;;;9.73;2.90;;;;;;;5.95;55.02;100355.75;4881997;28;120231;-92
2022/03/30 02:01:18;;;;;;;8.23;2.88;;;;;;;5.62;54.61;100299.75;4870023;28;120742;-92
2022/03/30 02:03:47;;;;;;;9.02;2.70;;;;;;;5.61;54.50;100301.69;4850854;28;121869;-93
2022/03/30 04:58:42;;;;;;;10.23;4.57;;;;;;;4.38;54.92;100265.16;4929326;23;120617;-92
2022/03/30 05:01:08;;;;;;;14.10;5.22;;;;;;;4.82;55.23;100321.69;4836621;28;120805;-93
2022/03/30 05:03:37;;;;;;;16.75;5.55;;;;;;;5.00;55.09;100343.09;4835504;28;122138;-91
2022/03/30 06:11:13;;;;;;;16.17;5.57;;;;;;;5.79;55.35;100363.88;1696894;23;119461;-90
2022/03/30 06:13:39;;;;;;;13.68;6.47;;;;;;;5.23;55.29;100260.63;4832500;28;122253;-94
2022/03/30 06:24:42;;;;;;;24.17;11.63;;;;;;;6.02;57.04;100343.91;4970132;23;119846;-92
2022/03/30 06:27:10;;;;;;;25.88;9.52;;;;;;;5.66;56.92;100279.41;4875353;28;120873;-91
2022/03/30 06:29:37;;;;;;;23.63;9.25;;;;;;;5.76;57.50;100277.66;4868410;28;122970;-91
2022/03/30 06:34:58;;;;;;;21.13;7.38;;;;;;;6.37;58.24;100331.34;5013990;23;118681;-92
2022/03/30 06:37:24;;;;;;;31.83;7.65;;;;;;;6.05;57.52;100270.31;4843199;28;118534;-91
2022/03/30 06:39:50;;;;;;;21.73;7.72;;;;;;;6.81;57.62;100365.19;4861161;28;119321;-91
2022/03/30 06:42:17;;;;;;;18.73;6.72;;;;;;;6.38;57.75;100289.28;4861815;28;120435;-92
2022/03/30 06:44:43;;;;;;;16.05;5.63;;;;;;;6.43;57.64;100289.53;4835738;28;118955;-92
2022/03/30 06:47:10;;;;;;;13.30;5.28;;;;;;;6.79;57.69;100321.22;4850511;28;120347;-92
2022/03/30 06:49:37;;;;;;;14.07;4.90;;;;;;;6.66;57.37;100288.50;4847406;29;120321;-93
2022/03/30 06:52:26;;;;;;;18.45;5.50;;;;;;;7.30;57.33;100365.72;4847286;29;118573;-92
2022/03/30 06:54:54;;;;;;;19.15;6.07;;;;;;;6.78;57.44;100279.59;4834810;28;121994;-93
2022/03/30 06:57:20;;;;;;;17.50;6.40;;;;;;;7.33;57.53;100348.50;4811235;28;118446;-93
2022/03/30 07:00:26;;;;;;;20.80;6.95;;;;;;;7.51;57.44;100367.03;4824991;29;119174;-91
2022/03/30 07:12:18;;;;;;;13.52;6.30;;;;;;;7.26;57.40;100285.19;4850866;28;121207;-93
2022/03/30 07:14:46;;;;;;;15.27;5.78;;;;;;;7.36;57.38;100293.06;4856162;28;118433;-94
2022/03/30 07:17:13;;;;;;;14.18;5.80;;;;;;;7.67;57.30;100317.03;4849890;28;119398;-94
2022/03/30 07:19:40;;;;;;;15.65;5.95;;;;;;;7.48;56.86;100279.81;4842055;29;119369;-94
2022/03/30 08:25:52;;;;;;;13.23;3.00;;;;;;;10.60;48.22;100343.19;1438511;23;119954;-88
2022/03/30 08:28:21;;;;;;;10.27;3.28;;;;;;;10.17;47.26;100268.25;4826234;28;121809;-90
2022/03/30 08:30:48;;;;;;;7.97;2.38;;;;;;;10.27;47.12;100285.50;4830488;28;119100;-90
2022/03/30 08:33:22;;;;;;;11.60;2.45;;;;;;;10.16;47.01;100269.47;4814308;28;122611;-91
2022/03/30 08:35:48;;;;;;;13.00;3.22;;;;;;;10.14;46.56;100263.69;4827525;28;119409;-91
2022/03/30 08:38:19;;;;;;;5.22;2.60;;;;;;;10.18;47.10;100269.03;4809232;28;120784;-90
2022/03/30 08:40:45;;;;;;;8.88;2.72;;;;;;;10.69;45.87;100345.97;4810885;28;121691;-91
2022/03/30 08:43:11;;;;;;;10.02;3.42;;;;;;;10.18;45.84;100280.75;4828719;28;119512;-90
2022/03/30 08:45:40;;;;;;;8.32;3.13;;;;;;;10.07;46.22;100278.47;4826694;28;122165;-91
2022/03/30 08:48:16;;;;;;;11.05;3.20;;;;;;;9.96;45.53;100283.63;4809941;28;123106;-89
2022/03/30 08:50:44;;;;;;;6.60;2.10;;;;;;;9.98;45.41;100305.09;4829707;28;118474;-90
2022/03/30 10:09:22;;;;;;;9.55;2.92;;;;;;;10.16;44.22;100277.69;4931049;23;119773;-90
2022/03/30 10:11:50;;;;;;;9.27;2.80;;;;;;;10.24;43.96;100280.94;4815531;28;121708;-90
2022/03/30 10:14:21;;;;;;;10.70;2.75;;;;;;;10.23;43.80;100262.97;4812067;28;119171;-90
2022/03/30 10:16:49;;;;;;;5.63;2.63;;;;;;;10.59;43.24;100295.81;4826709;28;121524;-91
2022/03/30 10:19:18;;;;;;;11.85;3.15;;;;;;;10.58;44.08;100296.28;4808297;28;122480;-92
2022/03/30 10:28:53;;;;;;;7.95;3.15;;;;;;;10.64;44.11;100288.94;4892383;23;120287;-90
2022/03/30 10:35:06;;;;;;;9.57;3.75;;;;;;;10.79;43.83;100300.06;4892355;23;119525;-91
2022/03/30 10:37:36;;;;;;;8.98;3.15;;;;;;;10.83;44.21;100297.91;4823692;28;118924;-90
2022/03/30 10:40:09;;;;;;;9.60;3.10;;;;;;;11.06;43.50;100303.47;4809704;28;122008;-90
2022/03/30 10:43:00;;;;;;;8.45;3.03;;;;;;;11.20;41.49;100295.81;4837875;28;123246;-91
2022/03/30 10:45:29;;;;;;;6.90;2.20;;;;;;;11.27;41.56;100279.00;4839486;28;121568;-91
2022/03/30 10:48:08;;;;;;;11.15;3.60;;;;;;;11.48;41.99;100277.22;4838525;28;122404;-90
2022/03/30 10:50:48;;;;;;;9.23;3.40;;;;;;;11.38;41.86;100240.84;4823154;28;123043;-92
2022/03/30 10:53:31;;;;;;;5.55;3.08;;;;;;;11.83;41.20;100283.00;4806935;28;120313;-91
2022/03/30 10:56:09;;;;;;;5.80;2.75;;;;;;;11.99;41.41;100277.09;4825532;28;122161;-92
2022/03/30 10:58:36;;;;;;;7.18;3.28;;;;;;;11.79;40.85;100230.97;4842099;28;121427;-91
2022/03/30 11:01:13;;;;;;;6.82;2.90;;;;;;;12.03;41.37;100250.19;4806782;28;120406;-92
2022/03/30 11:03:58;;;;;;;6.68;2.50;;;;;;;12.36;41.35;100294.06;4821213;28;122489;-91
2022/03/30 11:06:25;;;;;;;8.05;2.58;;;;;;;12.31;40.56;100274.72;4838391;28;119493;-93
2022/03/30 11:08:54;;;;;;;7.03;2.80;;;;;;;12.32;42.09;100270.75;4837662;28;121890;-90
2022/03/30 11:11:34;;;;;;;8.90;2.53;;;;;;;12.40;42.07;100260.88;4836695;28;122737;-93
2022/03/30 11:14:23;;;;;;;6.53;2.67;;;;;;;12.70;41.44;100287.16;4837808;28;119890;-92
2022/03/30 11:16:58;;;;;;;7.70;2.67;;;;;;;12.56;40.45;100268.69;4837615;28;121934;-91
2022/03/30 11:19:29;;;;;;;9.20;3.10;;;;;;;12.47;39.09;100260.50;4838495;28;122809;-91
2022/03/30 11:22:08;;;;;;;6.90;2.80;;;;;;;12.39;39.19;100262.88;4826272;28;119561;-90
2022/03/30 11:24:34;;;;;;;7.15;2.58;;;;;;;12.17;39.57;100235.72;4821586;28;123573;-92
2022/03/30 11:27:00;;;;;;;4.50;2.20;;;;;;;12.50;39.85;100281.56;4833059;28;119506;-90
2022/03/30 11:29:56;;;;;;;5.68;2.05;;;;;;;12.37;39.75;100248.06;4837782;28;121881;-91
2022/03/30 11:32:28;;;;;;;6.78;2.30;;;;;;;12.47;38.16;100255.00;4809264;28;122796;-90
2022/03/30 11:35:00;;;;;;;6.82;2.72;;;;;;;12.14;38.89;100228.41;4837495;28;119770;-91
2022/03/30 11:37:43;;;;;;;6.60;2.60;;;;;;;12.43;39.59;100288.19;4821747;28;120728;-93
2022/03/30 11:40:20;;;;;;;7.40;2.33;;;;;;;12.07;39.73;100222.53;4820519;28;123016;-90
2022/03/30 11:42:49;;;;;;;8.80;2.70;;;;;;;11.90;39.85;100202.97;4837699;28;119762;-90
2022/03/30 11:45:26;;;;;;;8.18;2.40;;;;;;;11.98;39.32;100215.09;4840232;28;122079;-92
2022/03/30 11:47:55;;;;;;;6.15;2.47;;;;;;;11.97;39.10;100221.84;4821857;28;119990;-92
2022/03/30 11:50:30;;;;;;;6.60;2.47;;;;;;;12.16;38.51;100261.69;4830287;28;121422;-94
2022/03/30 11:52:57;;;;;;;7.38;3.10;;;;;;;11.92;38.90;100237.00;4820634;28;121905;-91
2022/03/30 11:55:26;;;;;;;6.57;2.80;;;;;;;11.79;40.00;100230.22;4836363;28;119561;-91
2022/03/30 11:58:00;;;;;;;6.95;2.30;;;;;;;11.92;40.26;100244.47;4820480;28;122242;-90
2022/03/30 12:00:27;;;;;;;8.73;2.50;;;;;;;11.72;39.84;100211.31;4820824;28;123251;-92
2022/03/30 12:03:02;;;;;;;7.13;2.43;;;;;;;11.98;40.09;100232.34;4836868;28;119772;-92
2022/03/30 12:05:30;;;;;;;7.85;2.33;;;;;;;11.83;40.14;100206.06;4821405;28;121909;-91
2022/03/30 12:08:00;;;;;;;4.65;2.33;;;;;;;12.10;40.66;100233.34;4840087;28;122875;-90
2022/03/30 12:10:31;;;;;;;5.80;2.67;;;;;;;11.90;38.80;100214.72;4835723;28;122364;-92
2022/03/30 12:12:58;;;;;;;9.10;2.70;;;;;;;12.19;39.73;100269.00;4832319;28;122470;-90
2022/03/30 12:15:24;;;;;;;9.27;2.65;;;;;;;11.98;40.03;100243.34;4821203;28;121461;-92
2022/03/30 12:17:59;;;;;;;5.13;2.75;;;;;;;11.97;40.86;100241.84;4821747;28;121506;-91
2022/03/30 12:20:34;;;;;;;6.60;2.67;;;;;;;11.99;40.98;100233.13;4805709;28;123143;-90
2022/03/30 12:23:09;;;;;;;5.53;2.50;;;;;;;12.02;40.81;100223.91;4837802;28;119467;-91
2022/03/30 12:25:44;;;;;;;6.13;2.30;;;;;;;11.82;40.06;100185.31;4821279;28;122075;-90
2022/03/30 12:28:15;;;;;;;3.90;2.20;;;;;;;11.91;40.25;100199.75;4820840;28;123307;-91
2022/03/30 12:30:44;;;;;;;5.05;2.42;;;;;;;11.80;39.38;100188.53;4824199;28;120532;-91
2022/03/30 12:33:09;;;;;;;3.75;2.33;;;;;;;12.16;39.66;100247.94;4835369;28;122779;-89
2022/03/30 12:35:44;;;;;;;5.82;2.15;;;;;;;12.20;38.98;100239.50;4820393;28;119713;-90
2022/03/30 12:38:13;;;;;;;7.40;2.20;;;;;;;11.83;40.24;100184.84;4821300;28;121590;-91
2022/03/30 12:40:43;;;;;;;6.32;2.30;;;;;;;11.99;40.40;100209.13;4820626;28;122603;-90
2022/03/30 12:43:10;;;;;;;5.63;3.35;;;;;;;11.90;40.67;100183.72;4835737;28;120082;-92
2022/03/30 12:45:54;;;;;;;7.03;2.65;;;;;;;12.37;41.31;100253.56;4820719;28;121928;-90
2022/03/30 12:48:34;;;;;;;6.63;2.92;;;;;;;12.33;39.60;100261.25;4835447;28;122721;-89
2022/03/30 12:51:02;;;;;;;8.50;2.60;;;;;;;12.18;39.63;100259.22;4842092;28;120901;-91
2022/03/30 12:53:34;;;;;;;8.35;3.80;;;;;;;11.98;41.84;100254.34;4820351;28;123314;-90
2022/03/30 12:56:13;;;;;;;8.25;3.90;;;;;;;11.49;43.00;100210.09;4820696;28;119535;-91
2022/03/30 12:58:50;;;;;;;8.65;3.88;;;;;;;11.25;44.59;100215.56;4821149;28;121968;-93
2022/03/30 13:01:32;;;;;;;12.55;3.08;;;;;;;11.11;44.14;100225.25;4835090;28;121740;-90
2022/03/30 13:03:58;;;;;;;6.32;3.28;;;;;;;10.79;45.36;100195.81;4836121;28;119684;-91
2022/03/30 13:06:25;;;;;;;9.20;3.40;;;;;;;10.55;45.74;100182.78;4822006;28;120846;-91
2022/03/30 13:11:47;;;;;;;8.10;3.43;;;;;;;10.41;47.93;100233.56;4898041;23;119203;-91
2022/03/30 13:14:15;;;;;;;7.25;3.30;;;;;;;10.16;49.00;100226.38;4838737;28;120787;-90
2022/03/30 14:51:00;;;;;;;12.68;6.13;;;;;;;7.02;64.35;100175.66;4926117;23;119596;-93
2022/03/30 14:53:26;;;;;;;13.73;7.32;;;;;;;7.42;64.98;100221.56;4872842;28;119068;-92
2022/03/30 14:55:52;;;;;;;13.73;7.22;;;;;;;7.16;65.49;100180.69;4850928;28;120956;-92
2022/03/30 14:58:18;;;;;;;11.32;7.05;;;;;;;7.81;65.65;100259.25;4860179;23;121830;-92
2022/03/30 15:00:54;;;;;;;12.98;8.07;;;;;;;7.58;65.26;100197.63;4866933;28;121143;-94
2022/03/30 15:03:27;;;;;;;13.98;7.18;;;;;;;7.37;64.66;100160.88;4875302;28;120284;-91
2022/03/30 15:05:56;;;;;;;8.05;6.38;;;;;;;7.79;64.84;100223.41;4853836;28;119247;-93
2022/03/30 15:08:21;;;;;;;12.02;7.15;;;;;;;7.48;64.54;100168.72;4860161;28;120667;-92
2022/03/30 15:10:50;;;;;;;13.32;7.15;;;;;;;7.52;64.13;100163.13;4862307;28;121525;-94
2022/03/30 15:13:16;;;;;;;11.38;6.75;;;;;;;8.10;64.11;100261.03;4854948;28;118517;-93
2022/03/30 15:15:42;;;;;;;13.10;7.65;;;;;;;7.55;63.93;100165.72;4848527;28;119505;-94
2022/03/30 17:04:17;;;;;;;5.38;3.95;;;;;;;7.52;62.78;100251.22;3741857;23;121055;-93
2022/03/30 17:19:00;;;;;;;5.72;3.85;;;;;;;7.38;63.05;100260.63;846092;23;119147;-93
2022/03/30 18:19:07;;;;;;;6.72;3.90;;;;;;;6.53;62.18;100205.19;4871785;28;118785;-94
2022/03/30 18:21:40;;;;;;;5.40;4.15;;;;;;;6.77;62.80;100239.91;5010201;23;120013;-93
2022/03/30 20:29:51;;;;;;;4.38;2.53;;;;;;;6.19;65.39;100217.44;4978268;23;123181;-91
2022/03/30 20:32:17;;;;;;;4.72;2.45;;;;;;;6.18;64.79;100209.69;4839459;28;120161;-92
2022/03/30 20:34:44;;;;;;;4.93;2.78;;;;;;;6.20;65.37;100207.31;4855075;28;121073;-92
2022/03/30 20:37:29;;;;;;;5.30;2.70;;;;;;;6.23;65.63;100211.88;4847554;28;121997;-93
2022/03/30 20:45:33;;;;;;;5.63;3.30;;;;;;;6.04;65.83;100203.44;4976906;23;120154;-92
